Londonderry, United Kingdom
Current Conditions -  °F | °C
As of 5:30 PM on Wednesday 17 Dec 2014 (Local Time) from EIDL Reporting Station
Drizzle Drizzle  
Wind Chill: 50°   Ceiling: 500
Heat Index: 50°   Visibility: 2.6mi
Dew Point: 50°   Wind: 12mph
Humidity: 100%   Direction: 260°W
Pressure: 29.59"   Gusts: NA
Location:  54.99°N, 7.31°W
Report Text: EIDL 171730Z 26010KT 4200 +DZ BKN005 OVC010 10/10 Q1002
Loading
Personal Weather Stations






























Interactive Weather Map New forecast layout! Learn more

10-Day Weather Forecast

Advertisements
Track Severe Weather on mobile